CSAPA EDLW-EDDG
Flight info
| Callsign | CSAPA |
|---|---|
| Flight time | 0h 27m |
| Altitude | 2500 |
| Route | EDLW NROUTE NOVEMBER A1 WISKHEY WROUTE EDDG |
| Aircraft | C152/L-V/N |
Departure
| Time | 2026-04-20 00:03 |
|---|---|
| Airport | Dortmund Airport (EDLW) |
Arrival
| Time | 2026-04-20 00:30 |
|---|---|
| Airport | Münster Osnabrück Airport (EDDG) |
| Time | Latitude | Longitude | Altitude | Speed | Heading |
|---|---|---|---|---|---|
| 2026-04-19 23:55 | 51.51213 | 7.60494 | 427 ft | 0 kts | 330° |
| 2026-04-19 23:57 | 51.51218 | 7.60490 | 427 ft | 3 kts | 330° |
| 2026-04-19 23:57 | 51.51252 | 7.60459 | 427 ft | 9 kts | 332° |
| 2026-04-19 23:57 | 51.51271 | 7.60381 | 427 ft | 9 kts | 248° |
| 2026-04-19 23:58 | 51.51301 | 7.60342 | 427 ft | 8 kts | 46° |
| 2026-04-19 23:58 | 51.51337 | 7.60428 | 427 ft | 11 kts | 57° |
| 2026-04-19 23:58 | 51.51381 | 7.60540 | 427 ft | 13 kts | 58° |
| 2026-04-19 23:58 | 51.51432 | 7.60676 | 427 ft | 15 kts | 59° |
| 2026-04-19 23:59 | 51.51485 | 7.60815 | 427 ft | 14 kts | 58° |
| 2026-04-19 23:59 | 51.51530 | 7.60934 | 427 ft | 10 kts | 59° |
| 2026-04-19 23:59 | 51.51567 | 7.61035 | 427 ft | 11 kts | 61° |
| 2026-04-19 23:59 | 51.51595 | 7.61117 | 427 ft | 7 kts | 61° |
| 2026-04-20 00:00 | 51.51632 | 7.61173 | 427 ft | 7 kts | 349° |
| 2026-04-20 00:00 | 51.51659 | 7.61131 | 427 ft | 4 kts | 241° |
| 2026-04-20 00:00 | 51.51641 | 7.61075 | 427 ft | 8 kts | 243° |
| 2026-04-20 00:00 | 51.51610 | 7.60978 | 427 ft | 12 kts | 243° |
| 2026-04-20 00:01 | 51.51567 | 7.60844 | 427 ft | 15 kts | 243° |
| 2026-04-20 00:01 | 51.51537 | 7.60729 | 427 ft | 6 kts | 283° |
| 2026-04-20 00:01 | 51.51537 | 7.60726 | 427 ft | 0 kts | 283° |
| 2026-04-20 00:02 | 51.51541 | 7.60700 | 427 ft | 8 kts | 283° |
| 2026-04-20 00:02 | 51.51596 | 7.60605 | 427 ft | 14 kts | 354° |
| 2026-04-20 00:02 | 51.51669 | 7.60752 | 427 ft | 40 kts | 60° |
| 2026-04-20 00:02 | 51.51883 | 7.61360 | 481 ft | 74 kts | 60° |
| 2026-04-20 00:03 | 51.52121 | 7.62015 | 733 ft | 72 kts | 60° |
| 2026-04-20 00:03 | 51.52404 | 7.62840 | 860 ft | 83 kts | 55° |
| 2026-04-20 00:03 | 51.52913 | 7.63150 | 1071 ft | 86 kts | 353° |
| 2026-04-20 00:03 | 51.53464 | 7.62938 | 1352 ft | 78 kts | 346° |
| 2026-04-20 00:04 | 51.54009 | 7.62712 | 1536 ft | 83 kts | 344° |
| 2026-04-20 00:04 | 51.54564 | 7.62508 | 1758 ft | 81 kts | 348° |
| 2026-04-20 00:04 | 51.55124 | 7.62334 | 1958 ft | 82 kts | 348° |
| 2026-04-20 00:04 | 51.55683 | 7.62133 | 2159 ft | 82 kts | 346° |
| 2026-04-20 00:05 | 51.56240 | 7.61917 | 2349 ft | 83 kts | 347° |
| 2026-04-20 00:05 | 51.56823 | 7.61697 | 2448 ft | 92 kts | 346° |
| 2026-04-20 00:05 | 51.57459 | 7.61443 | 2462 ft | 96 kts | 345° |
| 2026-04-20 00:05 | 51.58127 | 7.61166 | 2456 ft | 102 kts | 345° |
| 2026-04-20 00:06 | 51.58824 | 7.60878 | 2451 ft | 103 kts | 347° |
| 2026-04-20 00:06 | 51.59528 | 7.60758 | 2462 ft | 104 kts | 0° |
| 2026-04-20 00:06 | 51.60253 | 7.60875 | 2434 ft | 107 kts | 12° |
| 2026-04-20 00:06 | 51.60950 | 7.61293 | 2415 ft | 106 kts | 27° |
| 2026-04-20 00:07 | 51.61565 | 7.61935 | 2427 ft | 105 kts | 38° |
| 2026-04-20 00:07 | 51.62077 | 7.62754 | 2443 ft | 104 kts | 50° |
| 2026-04-20 00:07 | 51.62519 | 7.63693 | 2434 ft | 104 kts | 54° |
| 2026-04-20 00:07 | 51.62925 | 7.64618 | 2472 ft | 101 kts | 53° |
| 2026-04-20 00:08 | 51.63331 | 7.65566 | 2437 ft | 104 kts | 57° |
| 2026-04-20 00:08 | 51.63773 | 7.66460 | 2458 ft | 101 kts | 45° |
| 2026-04-20 00:08 | 51.64316 | 7.67188 | 2446 ft | 103 kts | 34° |
| 2026-04-20 00:08 | 51.64948 | 7.67719 | 2447 ft | 102 kts | 21° |
| 2026-04-20 00:09 | 51.65628 | 7.68039 | 2446 ft | 102 kts | 11° |
| 2026-04-20 00:09 | 51.66323 | 7.68177 | 2443 ft | 102 kts | 3° |
| 2026-04-20 00:09 | 51.67035 | 7.68185 | 2443 ft | 102 kts | 358° |
| 2026-04-20 00:09 | 51.67743 | 7.68088 | 2440 ft | 102 kts | 353° |
| 2026-04-20 00:10 | 51.68443 | 7.67907 | 2443 ft | 102 kts | 350° |
| 2026-04-20 00:10 | 51.69148 | 7.67729 | 2432 ft | 103 kts | 352° |
| 2026-04-20 00:10 | 51.69857 | 7.67569 | 2433 ft | 102 kts | 352° |
| 2026-04-20 00:10 | 51.70557 | 7.67375 | 2431 ft | 102 kts | 348° |
| 2026-04-20 00:11 | 51.71252 | 7.67113 | 2429 ft | 102 kts | 345° |
| 2026-04-20 00:11 | 51.71926 | 7.66813 | 2440 ft | 101 kts | 345° |
| 2026-04-20 00:11 | 51.72615 | 7.66513 | 2419 ft | 103 kts | 345° |
| 2026-04-20 00:11 | 51.73311 | 7.66212 | 2442 ft | 101 kts | 345° |
| 2026-04-20 00:12 | 51.73978 | 7.65927 | 2445 ft | 101 kts | 345° |
| 2026-04-20 00:12 | 51.74668 | 7.65645 | 2441 ft | 102 kts | 346° |
| 2026-04-20 00:12 | 51.75353 | 7.65375 | 2448 ft | 101 kts | 346° |
| 2026-04-20 00:12 | 51.76040 | 7.65106 | 2453 ft | 102 kts | 346° |
| 2026-04-20 00:13 | 51.76729 | 7.64832 | 2451 ft | 102 kts | 346° |
| 2026-04-20 00:13 | 51.77402 | 7.64490 | 2459 ft | 101 kts | 338° |
| 2026-04-20 00:13 | 51.78038 | 7.64001 | 2459 ft | 102 kts | 331° |
| 2026-04-20 00:13 | 51.78638 | 7.63400 | 2463 ft | 102 kts | 326° |
| 2026-04-20 00:14 | 51.79208 | 7.62720 | 2465 ft | 102 kts | 321° |
| 2026-04-20 00:14 | 51.79752 | 7.61991 | 2465 ft | 102 kts | 320° |
| 2026-04-20 00:14 | 51.80299 | 7.61263 | 2479 ft | 101 kts | 321° |
| 2026-04-20 00:14 | 51.80860 | 7.60566 | 2463 ft | 103 kts | 323° |
| 2026-04-20 00:15 | 51.81430 | 7.59886 | 2472 ft | 102 kts | 324° |
| 2026-04-20 00:15 | 51.82027 | 7.59267 | 2456 ft | 103 kts | 333° |
| 2026-04-20 00:15 | 51.82693 | 7.58825 | 2452 ft | 102 kts | 341° |
| 2026-04-20 00:15 | 51.83375 | 7.58517 | 2459 ft | 102 kts | 347° |
| 2026-04-20 00:16 | 51.84066 | 7.58294 | 2443 ft | 100 kts | 350° |
| 2026-04-20 00:16 | 51.84754 | 7.58114 | 2361 ft | 103 kts | 351° |
| 2026-04-20 00:16 | 51.85458 | 7.57954 | 2307 ft | 101 kts | 352° |
| 2026-04-20 00:16 | 51.86156 | 7.57812 | 2239 ft | 102 kts | 353° |
| 2026-04-20 00:17 | 51.86866 | 7.57665 | 2173 ft | 101 kts | 351° |
| 2026-04-20 00:17 | 51.87551 | 7.57448 | 2115 ft | 101 kts | 347° |
| 2026-04-20 00:17 | 51.88234 | 7.57161 | 2061 ft | 101 kts | 345° |
| 2026-04-20 00:17 | 51.88914 | 7.56856 | 2032 ft | 101 kts | 345° |
| 2026-04-20 00:18 | 51.89590 | 7.56571 | 2016 ft | 100 kts | 346° |
| 2026-04-20 00:18 | 51.90273 | 7.56311 | 1985 ft | 101 kts | 347° |
| 2026-04-20 00:18 | 51.90956 | 7.56061 | 1967 ft | 100 kts | 348° |
| 2026-04-20 00:18 | 51.91641 | 7.55844 | 1941 ft | 101 kts | 349° |
| 2026-04-20 00:19 | 51.92327 | 7.55642 | 1927 ft | 100 kts | 350° |
| 2026-04-20 00:19 | 51.93012 | 7.55467 | 1911 ft | 100 kts | 351° |
| 2026-04-20 00:19 | 51.93706 | 7.55323 | 1885 ft | 100 kts | 354° |
| 2026-04-20 00:19 | 51.94399 | 7.55252 | 1874 ft | 100 kts | 358° |
| 2026-04-20 00:20 | 51.95099 | 7.55224 | 1874 ft | 100 kts | 359° |
| 2026-04-20 00:20 | 51.95805 | 7.55218 | 1917 ft | 102 kts | 0° |
| 2026-04-20 00:20 | 51.96510 | 7.55224 | 1988 ft | 101 kts | 0° |
| 2026-04-20 00:20 | 51.97215 | 7.55312 | 2029 ft | 103 kts | 9° |
| 2026-04-20 00:21 | 51.97911 | 7.55579 | 2092 ft | 102 kts | 16° |
| 2026-04-20 00:21 | 51.98589 | 7.55953 | 2085 ft | 105 kts | 22° |
| 2026-04-20 00:21 | 51.99264 | 7.56443 | 2033 ft | 106 kts | 25° |
| 2026-04-20 00:21 | 51.99919 | 7.56981 | 2006 ft | 105 kts | 28° |
| 2026-04-20 00:22 | 52.00562 | 7.57542 | 1972 ft | 105 kts | 28° |
| 2026-04-20 00:22 | 52.01194 | 7.58103 | 1951 ft | 104 kts | 28° |
| 2026-04-20 00:22 | 52.01837 | 7.58652 | 1922 ft | 105 kts | 27° |
| 2026-04-20 00:22 | 52.02488 | 7.59190 | 1893 ft | 104 kts | 26° |
| 2026-04-20 00:23 | 52.03122 | 7.59711 | 1917 ft | 101 kts | 26° |
| 2026-04-20 00:23 | 52.03748 | 7.60237 | 1910 ft | 102 kts | 27° |
| 2026-04-20 00:23 | 52.04368 | 7.60765 | 1932 ft | 100 kts | 27° |
| 2026-04-20 00:23 | 52.04992 | 7.61284 | 1924 ft | 101 kts | 26° |
| 2026-04-20 00:24 | 52.05409 | 7.61619 | 1930 ft | 101 kts | 26° |
| 2026-04-20 00:24 | 52.06041 | 7.62108 | 1937 ft | 101 kts | 25° |
| 2026-04-20 00:24 | 52.06676 | 7.62594 | 1938 ft | 101 kts | 25° |
| 2026-04-20 00:24 | 52.07319 | 7.63054 | 1944 ft | 101 kts | 24° |
| 2026-04-20 00:25 | 52.07934 | 7.63612 | 1933 ft | 102 kts | 33° |
| 2026-04-20 00:25 | 52.08498 | 7.64300 | 1941 ft | 101 kts | 40° |
| 2026-04-20 00:25 | 52.09034 | 7.65035 | 1948 ft | 101 kts | 40° |
| 2026-04-20 00:25 | 52.09554 | 7.65805 | 1946 ft | 102 kts | 47° |
| 2026-04-20 00:26 | 52.09985 | 7.66721 | 1940 ft | 102 kts | 58° |
| 2026-04-20 00:26 | 52.10292 | 7.67754 | 1944 ft | 101 kts | 68° |
| 2026-04-20 00:26 | 52.10568 | 7.68807 | 1959 ft | 100 kts | 66° |
| 2026-04-20 00:26 | 52.10845 | 7.69855 | 1948 ft | 101 kts | 67° |
| 2026-04-20 00:27 | 52.11117 | 7.70910 | 1953 ft | 101 kts | 67° |
| 2026-04-20 00:27 | 52.11380 | 7.71957 | 1925 ft | 99 kts | 68° |
| 2026-04-20 00:27 | 52.11637 | 7.73019 | 1826 ft | 102 kts | 69° |
| 2026-04-20 00:27 | 52.11937 | 7.74015 | 1716 ft | 97 kts | 46° |
| 2026-04-20 00:28 | 52.12517 | 7.74437 | 1607 ft | 91 kts | 5° |
| 2026-04-20 00:28 | 52.13117 | 7.74263 | 1434 ft | 89 kts | 342° |
| 2026-04-20 00:28 | 52.13665 | 7.73968 | 1249 ft | 80 kts | 341° |
| 2026-04-20 00:28 | 52.14116 | 7.73590 | 1029 ft | 76 kts | 308° |
| 2026-04-20 00:29 | 52.14323 | 7.72834 | 825 ft | 72 kts | 282° |
| 2026-04-20 00:29 | 52.14242 | 7.72033 | 611 ft | 75 kts | 243° |
| 2026-04-20 00:29 | 52.14042 | 7.71248 | 415 ft | 75 kts | 251° |
| 2026-04-20 00:29 | 52.13887 | 7.70479 | 327 ft | 71 kts | 252° |
| 2026-04-20 00:30 | 52.13724 | 7.69719 | 210 ft | 71 kts | 250° |
| 2026-04-20 00:30 | 52.13574 | 7.69031 | 163 ft | 53 kts | 250° |
| 2026-04-20 00:30 | 52.13474 | 7.68569 | 162 ft | 35 kts | 250° |
| 2026-04-20 00:30 | 52.13407 | 7.68260 | 162 ft | 22 kts | 250° |
| 2026-04-20 00:31 | 52.13373 | 7.68192 | 162 ft | 1 kts | 160° |
| 2026-04-20 00:31 | 52.13327 | 7.68218 | 162 ft | 10 kts | 161° |
| 2026-04-20 00:31 | 52.13282 | 7.68243 | 162 ft | 4 kts | 162° |
| 2026-04-20 00:32 | 52.13274 | 7.68247 | 162 ft | 0 kts | 162° |
| 2026-04-20 00:32 | 52.13273 | 7.68247 | 162 ft | 0 kts | 162° |
| 2026-04-20 00:32 | 52.13243 | 7.68264 | 162 ft | 14 kts | 162° |
| 2026-04-20 00:32 | 52.13146 | 7.68289 | 162 ft | 2 kts | 243° |
| 2026-04-20 00:33 | 52.13131 | 7.68218 | 162 ft | 12 kts | 251° |
| 2026-04-20 00:33 | 52.13126 | 7.68190 | 162 ft | 0 kts | 251° |
| 2026-04-20 00:33 | 52.13125 | 7.68190 | 162 ft | 0 kts | 251° |